Time;durP1;ratioP1;P1;durP2;ratioP2;P2;SDS_P1;SDS_P2;PMS_P1;PMS_P2;Temp;Humidity;BMP_temperature;BMP_pressure;BME280_temperature;BME280_humidity;BME280_pressure;Samples;Min_cycle;Max_cycle;Signal;HPM_P1;HPM_P2
2022/08/12 00:44:46;;;;;;;5.25;2.42;;;21.20;93.30;;;;;;4991299;28;20039;-45
2022/08/12 00:47:13;;;;;;;3.75;2.40;;;21.20;93.70;;;;;;4991261;28;20136;-47
2022/08/12 00:49:39;;;;;;;4.55;2.40;;;21.00;93.80;;;;;;4991113;28;20046;-44
2022/08/12 00:52:06;;;;;;;6.68;2.83;;;21.10;93.60;;;;;;4991060;28;20146;-45
2022/08/12 00:54:57;;;;;;;4.93;2.65;;;21.00;93.90;;;;;;4990860;28;20042;-45
2022/08/12 00:57:28;;;;;;;4.75;2.65;;;21.00;94.10;;;;;;4991050;28;20081;-46
2022/08/12 01:00:00;;;;;;;3.55;2.70;;;21.00;94.30;;;;;;4991193;28;20042;-47
2022/08/12 01:02:34;;;;;;;4.43;2.50;;;20.90;94.40;;;;;;4991127;28;20042;-46
2022/08/12 01:13:25;;;;;;;5.25;2.40;;;20.80;94.60;;;;;;4992357;28;20093;-44
2022/08/12 01:15:58;;;;;;;6.20;2.65;;;20.70;95.10;;;;;;4990951;28;20093;-46
2022/08/12 01:18:29;;;;;;;5.28;2.88;;;20.60;95.30;;;;;;5007388;28;20046;-44
2022/08/12 01:21:08;;;;;;;4.70;2.70;;;20.60;95.70;;;;;;5010617;28;20569;-47
2022/08/12 01:24:32;;;;;;;5.50;2.70;;;20.70;95.40;;;;;;5013350;28;20046;-47
2022/08/12 01:27:02;;;;;;;3.90;2.57;;;20.60;95.70;;;;;;4953117;29;20032;-49
2022/08/12 01:29:30;;;;;;;3.50;2.38;;;20.50;95.80;;;;;;5013055;28;20482;-49
2022/08/12 01:31:57;;;;;;;8.02;2.97;;;20.50;95.90;;;;;;5013604;28;20046;-47
2022/08/12 01:34:30;;;;;;;5.75;2.50;;;20.40;96.20;;;;;;5012647;28;20042;-45
2022/08/12 01:36:58;;;;;;;5.70;2.97;;;20.40;96.40;;;;;;4994955;28;20084;-46
2022/08/12 01:39:30;;;;;;;5.28;3.00;;;20.40;96.20;;;;;;4993851;28;20042;-44
2022/08/12 01:42:02;;;;;;;4.78;3.10;;;20.30;96.40;;;;;;5013186;28;20363;-45
2022/08/12 01:44:30;;;;;;;5.75;3.10;;;20.20;96.80;;;;;;5013141;28;20085;-46
2022/08/12 01:47:04;;;;;;;4.88;3.05;;;20.20;96.60;;;;;;5012414;28;20370;-46
2022/08/12 01:49:49;;;;;;;5.18;3.00;;;20.20;97.00;;;;;;5013320;28;20041;-46
2022/08/12 01:52:50;;;;;;;4.50;2.92;;;20.20;97.10;;;;;;5013079;28;20060;-48
2022/08/12 01:55:20;;;;;;;5.60;2.90;;;20.20;97.30;;;;;;4995001;28;20045;-46
2022/08/12 01:57:59;;;;;;;4.78;2.90;;;20.10;97.30;;;;;;5012433;28;20096;-48
2022/08/12 02:00:30;;;;;;;6.25;3.00;;;20.00;97.60;;;;;;5012864;28;20046;-50
2022/08/12 02:03:13;;;;;;;7.22;3.33;;;19.90;97.90;;;;;;5013290;28;20041;-47
2022/08/12 02:11:55;;;;;;;4.55;2.70;;;19.70;98.90;;;;;;5013148;28;20140;-48
2022/08/12 02:14:51;;;;;;;5.57;3.00;;;19.70;98.60;;;;;;5013173;28;20088;-46
2022/08/12 02:17:44;;;;;;;4.40;2.88;;;19.60;99.40;;;;;;4994083;28;20038;-45
2022/08/12 02:20:25;;;;;;;4.95;3.03;;;19.60;99.60;;;;;;5012532;28;20481;-45
2022/08/12 02:22:53;;;;;;;5.85;3.10;;;19.70;99.50;;;;;;5011603;28;20046;-47
2022/08/12 02:25:28;;;;;;;5.70;3.28;;;19.70;99.60;;;;;;5013225;28;20064;-47
2022/08/12 02:27:55;;;;;;;5.22;3.25;;;19.60;99.50;;;;;;5011499;28;20038;-44
2022/08/12 02:30:25;;;;;;;6.95;3.30;;;19.60;99.70;;;;;;5012737;28;20048;-45
2022/08/12 02:32:52;;;;;;;6.38;3.78;;;19.60;99.90;;;;;;5011476;28;20131;-46
2022/08/12 02:35:21;;;;;;;6.00;3.28;;;19.60;99.90;;;;;;4992377;28;20030;-47
2022/08/12 02:37:51;;;;;;;4.90;3.38;;;19.60;99.90;;;;;;4992675;28;20042;-47
2022/08/12 02:40:18;;;;;;;6.00;3.47;;;19.50;99.90;;;;;;5011643;28;20038;-47
2022/08/12 02:42:50;;;;;;;4.53;3.17;;;19.50;99.90;;;;;;5012408;28;20046;-45
2022/08/12 02:45:20;;;;;;;4.82;3.25;;;19.40;99.90;;;;;;5012261;28;20038;-49
2022/08/12 02:47:49;;;;;;;5.85;3.80;;;19.40;99.90;;;;;;5011705;28;20452;-43
2022/08/12 02:50:19;;;;;;;7.75;3.70;;;19.30;99.90;;;;;;5012165;28;20030;-46
2022/08/12 02:52:46;;;;;;;5.68;3.20;;;19.40;99.90;;;;;;5000060;28;20053;-43
2022/08/12 02:55:20;;;;;;;6.28;3.63;;;19.40;99.90;;;;;;4994910;28;20057;-47
2022/08/12 02:57:46;;;;;;;7.40;3.80;;;19.20;99.90;;;;;;5011628;28;20045;-49
2022/08/12 03:00:17;;;;;;;5.07;3.38;;;19.30;99.90;;;;;;5012273;28;20140;-45
2022/08/12 03:02:45;;;;;;;5.00;3.50;;;19.20;99.90;;;;;;5011569;28;20068;-45
2022/08/12 03:05:14;;;;;;;5.38;3.58;;;19.20;99.90;;;;;;5010811;28;20037;-47
2022/08/12 03:07:58;;;;;;;6.65;3.50;;;19.10;99.90;;;;;;5011351;28;20042;-47
2022/08/12 03:10:28;;;;;;;7.35;3.75;;;19.10;99.90;;;;;;5012085;28;20096;-46
2022/08/12 03:12:56;;;;;;;6.13;3.83;;;19.10;99.90;;;;;;5011800;28;20045;-48
2022/08/12 03:15:23;;;;;;;6.53;3.78;;;19.00;99.90;;;;;;5008784;28;20034;-45
2022/08/12 03:18:18;;;;;;;6.32;3.70;;;18.90;99.90;;;;;;5012233;28;20050;-45
2022/08/12 03:20:45;;;;;;;7.03;3.90;;;18.90;99.90;;;;;;5011260;28;20433;-44
2022/08/12 03:23:13;;;;;;;5.32;3.60;;;18.90;99.90;;;;;;5011976;28;20042;-45
2022/08/12 03:25:43;;;;;;;7.35;3.70;;;19.10;99.90;;;;;;5011561;28;20042;-47
2022/08/12 03:28:11;;;;;;;6.32;3.72;;;18.90;99.90;;;;;;5011944;28;20236;-47
2022/08/12 03:30:41;;;;;;;6.43;4.45;;;18.80;99.90;;;;;;5010453;28;20029;-45
2022/08/12 03:33:10;;;;;;;6.90;3.92;;;18.80;99.90;;;;;;5011723;28;20044;-47
2022/08/12 03:35:41;;;;;;;5.20;3.90;;;18.70;99.90;;;;;;5011496;28;20485;-45
2022/08/12 03:38:10;;;;;;;7.40;3.90;;;18.60;99.90;;;;;;5011314;28;20041;-43
2022/08/12 04:00:22;;;;;;;5.72;3.90;;;18.30;99.90;;;;;;5010976;28;19972;-45
2022/08/12 04:02:58;;;;;;;6.57;4.25;;;18.30;99.90;;;;;;5011151;28;20052;-45
2022/08/12 04:05:25;;;;;;;8.13;4.40;;;18.30;99.90;;;;;;4993406;28;20033;-45
2022/08/12 04:07:52;;;;;;;5.97;4.70;;;18.30;99.90;;;;;;5010905;28;20042;-47
2022/08/12 04:10:19;;;;;;;8.18;4.25;;;18.20;99.90;;;;;;5010822;28;20041;-46
2022/08/12 04:15:44;;;;;;;8.27;3.92;;;18.30;99.90;;;;;;4992762;28;20513;-45
2022/08/12 04:18:12;;;;;;;5.60;4.07;;;18.20;99.90;;;;;;4991142;28;20052;-45
2022/08/12 04:20:41;;;;;;;6.65;4.40;;;18.10;99.90;;;;;;4991175;28;20038;-48
2022/08/12 04:23:09;;;;;;;7.50;4.50;;;18.20;99.90;;;;;;5010173;28;20053;-46
2022/08/12 04:25:38;;;;;;;6.75;4.50;;;18.20;99.90;;;;;;5010844;28;20409;-45
2022/08/12 04:28:05;;;;;;;7.55;4.90;;;18.10;99.90;;;;;;5009990;28;20092;-46
2022/08/12 04:30:31;;;;;;;6.72;4.88;;;18.00;99.90;;;;;;4991472;28;20121;-48
2022/08/12 04:32:57;;;;;;;6.80;5.03;;;18.00;99.90;;;;;;4991274;28;20113;-46
2022/08/12 04:35:22;;;;;;;7.25;4.68;;;18.10;99.90;;;;;;4996740;28;20046;-48
2022/08/12 04:37:56;;;;;;;9.60;6.00;;;18.00;99.90;;;;;;5010433;28;20470;-45
2022/08/12 04:40:23;;;;;;;5.60;4.40;;;18.00;99.90;;;;;;5009664;28;20367;-45
2022/08/12 04:42:52;;;;;;;6.90;4.40;;;18.00;99.90;;;;;;5010794;28;20461;-46
2022/08/12 04:45:19;;;;;;;6.45;4.80;;;18.00;99.90;;;;;;4997514;28;20034;-48
2022/08/12 04:47:45;;;;;;;7.03;5.25;;;18.00;99.90;;;;;;4992647;28;20044;-47
2022/08/12 04:50:15;;;;;;;8.10;4.40;;;18.00;99.90;;;;;;5010346;28;20033;-47
2022/08/12 04:52:41;;;;;;;9.13;4.88;;;18.00;99.90;;;;;;5010662;28;20510;-48
2022/08/12 04:55:09;;;;;;;6.63;4.80;;;18.00;99.90;;;;;;5010675;28;20061;-46
2022/08/12 04:57:35;;;;;;;6.55;4.75;;;18.00;99.90;;;;;;5014342;28;20044;-44
2022/08/12 05:00:06;;;;;;;10.07;5.15;;;18.00;99.90;;;;;;5014498;28;20048;-47
2022/08/12 05:02:31;;;;;;;7.18;5.15;;;18.00;99.90;;;;;;5014089;28;20096;-46
2022/08/12 05:04:59;;;;;;;7.18;5.03;;;18.00;99.90;;;;;;5014480;28;20045;-47
2022/08/12 05:07:26;;;;;;;6.55;4.65;;;18.10;99.90;;;;;;5014425;28;20080;-46
2022/08/12 05:09:52;;;;;;;7.43;4.63;;;18.10;99.90;;;;;;5014083;28;20111;-46
2022/08/12 05:12:18;;;;;;;8.32;5.25;;;18.20;99.90;;;;;;5014288;28;20042;-44
2022/08/12 05:14:45;;;;;;;6.65;4.60;;;18.10;99.90;;;;;;5014052;28;20041;-45
2022/08/12 05:17:11;;;;;;;7.97;4.50;;;18.20;99.90;;;;;;5012792;28;20041;-47
2022/08/12 05:19:36;;;;;;;7.95;5.00;;;18.20;99.90;;;;;;5014187;28;20034;-45
2022/08/12 05:22:02;;;;;;;8.65;4.88;;;18.30;99.90;;;;;;5013758;28;20058;-46
2022/08/12 05:24:28;;;;;;;7.40;5.00;;;18.30;99.90;;;;;;5014045;28;20049;-45
2022/08/12 05:26:54;;;;;;;6.97;4.43;;;18.30;99.90;;;;;;5014125;28;20049;-45
2022/08/12 05:29:20;;;;;;;7.53;4.82;;;18.30;99.90;;;;;;5013692;28;20595;-47
2022/08/12 05:31:48;;;;;;;7.75;4.43;;;18.50;99.90;;;;;;5014068;28;20038;-49
2022/08/12 05:34:14;;;;;;;9.50;5.03;;;18.60;99.90;;;;;;5013437;28;20077;-47
2022/08/12 05:36:42;;;;;;;7.25;4.75;;;18.70;99.90;;;;;;5013656;28;20049;-47
2022/08/12 05:39:08;;;;;;;6.05;4.50;;;18.60;99.90;;;;;;5013145;28;20042;-45
2022/08/12 05:41:34;;;;;;;8.05;4.57;;;18.80;99.90;;;;;;5013795;28;20213;-46
2022/08/12 05:44:09;;;;;;;7.78;3.97;;;19.00;99.90;;;;;;5013810;28;20046;-46
2022/08/12 05:46:35;;;;;;;5.70;4.22;;;19.00;99.90;;;;;;5013677;28;20042;-47
2022/08/12 05:49:03;;;;;;;7.38;4.40;;;19.10;99.90;;;;;;5013381;28;20461;-45
2022/08/12 05:51:31;;;;;;;5.90;4.45;;;19.10;99.90;;;;;;5013340;28;20034;-45
2022/08/12 05:53:57;;;;;;;6.78;4.82;;;19.10;99.90;;;;;;5013206;28;20034;-45
2022/08/12 05:56:26;;;;;;;9.48;4.57;;;19.20;99.90;;;;;;5013259;28;20041;-47
2022/08/12 05:58:52;;;;;;;9.43;4.65;;;19.20;99.90;;;;;;4992098;28;20087;-46
2022/08/12 06:01:20;;;;;;;11.52;5.10;;;19.10;99.90;;;;;;5013298;28;20034;-46
2022/08/12 06:03:46;;;;;;;6.95;4.53;;;19.20;99.90;;;;;;5011948;28;20038;-45
2022/08/12 06:06:15;;;;;;;8.23;4.55;;;19.20;99.90;;;;;;5013383;28;20076;-45
2022/08/12 06:08:44;;;;;;;8.10;4.70;;;19.20;99.90;;;;;;5012584;28;20056;-46
2022/08/12 06:11:10;;;;;;;7.90;4.65;;;19.30;99.90;;;;;;4995213;28;20080;-48
2022/08/12 06:13:37;;;;;;;6.25;4.38;;;19.30;99.90;;;;;;5013525;28;20065;-46
2022/08/12 06:16:05;;;;;;;7.38;4.72;;;19.40;99.90;;;;;;5013333;28;20468;-46
2022/08/12 06:18:30;;;;;;;8.18;4.97;;;19.40;99.90;;;;;;5012958;28;20390;-45
2022/08/12 06:20:58;;;;;;;7.82;4.70;;;19.50;99.90;;;;;;5013010;28;20057;-45
2022/08/12 06:23:28;;;;;;;7.85;4.70;;;19.40;99.90;;;;;;5012733;28;20494;-43
2022/08/12 06:25:55;;;;;;;10.48;4.75;;;19.60;99.90;;;;;;5012937;28;20500;-46
2022/08/12 06:28:21;;;;;;;6.03;4.40;;;19.60;99.90;;;;;;5012862;28;20050;-46
2022/08/12 06:30:48;;;;;;;7.72;5.15;;;19.70;99.90;;;;;;5012672;28;20049;-47
2022/08/12 06:33:14;;;;;;;7.40;4.32;;;19.80;99.90;;;;;;5012805;28;20034;-46
2022/08/12 06:35:43;;;;;;;8.38;4.03;;;19.90;99.90;;;;;;4998172;28;20108;-48
2022/08/12 06:38:16;;;;;;;10.27;4.43;;;19.90;99.90;;;;;;4992736;28;20034;-47
2022/08/12 06:43:29;;;;;;;6.50;4.28;;;19.90;99.90;;;;;;5012570;28;20125;-48
2022/08/12 06:45:56;;;;;;;8.02;4.82;;;20.00;99.90;;;;;;5012410;28;20121;-45
2022/08/12 06:48:24;;;;;;;5.88;4.43;;;20.10;99.90;;;;;;5012360;28;20041;-46
2022/08/12 06:50:49;;;;;;;7.13;4.22;;;20.10;99.90;;;;;;4994793;28;20500;-46
2022/08/12 06:53:15;;;;;;;6.88;4.35;;;20.20;99.90;;;;;;5012124;28;20072;-44
2022/08/12 06:55:41;;;;;;;6.20;4.20;;;20.30;99.90;;;;;;5012296;28;20034;-45
2022/08/12 06:58:07;;;;;;;6.65;4.53;;;20.40;99.90;;;;;;5012511;28;20046;-46
2022/08/12 07:00:34;;;;;;;9.05;4.60;;;20.40;99.90;;;;;;5012306;28;20405;-44
2022/08/12 07:03:02;;;;;;;6.55;4.00;;;20.40;99.90;;;;;;5000357;28;20034;-44
2022/08/12 07:05:28;;;;;;;7.63;4.00;;;20.60;99.90;;;;;;5000776;28;20196;-46
2022/08/12 07:07:54;;;;;;;6.63;4.00;;;20.70;99.90;;;;;;4990346;28;20537;-46
2022/08/12 07:10:22;;;;;;;7.32;4.10;;;20.70;99.90;;;;;;5011092;28;20061;-45
2022/08/12 07:12:53;;;;;;;7.50;3.75;;;20.80;99.90;;;;;;5011573;28;20061;-44
2022/08/12 07:15:27;;;;;;;8.75;3.90;;;20.90;99.90;;;;;;5011841;28;20083;-47
2022/08/12 07:18:10;;;;;;;7.45;3.80;;;21.00;99.90;;;;;;5010625;28;20079;-48
2022/08/12 07:20:41;;;;;;;7.60;4.15;;;21.00;99.90;;;;;;5011364;28;20462;-46
2022/08/12 07:23:07;;;;;;;9.88;3.58;;;21.10;99.90;;;;;;5011944;28;20053;-45
2022/08/12 07:25:34;;;;;;;6.60;3.40;;;21.20;99.90;;;;;;5011853;28;20393;-46
2022/08/12 07:28:06;;;;;;;7.80;3.83;;;21.30;99.90;;;;;;5011735;28;20420;-44
2022/08/12 07:30:36;;;;;;;7.47;3.38;;;21.40;99.90;;;;;;4985912;28;20041;-47
2022/08/12 07:33:03;;;;;;;6.53;3.45;;;21.50;99.90;;;;;;5005003;28;20049;-44
2022/08/12 07:35:31;;;;;;;7.22;3.70;;;21.70;99.90;;;;;;4992637;28;20116;-48
2022/08/12 07:37:59;;;;;;;6.82;3.63;;;21.70;99.90;;;;;;5009124;28;20049;-46
2022/08/12 07:40:26;;;;;;;5.93;3.22;;;21.80;99.90;;;;;;5008848;28;20038;-48
2022/08/12 07:42:52;;;;;;;5.40;2.92;;;21.90;99.90;;;;;;5010226;28;20061;-50
2022/08/12 07:45:19;;;;;;;6.47;3.03;;;22.00;99.90;;;;;;5010324;28;20042;-47
2022/08/12 07:47:46;;;;;;;7.15;2.80;;;22.10;99.90;;;;;;4992614;28;20045;-45
2022/08/12 07:50:13;;;;;;;8.02;3.10;;;22.20;99.90;;;;;;5006515;28;20038;-46
2022/08/12 07:52:43;;;;;;;3.92;2.70;;;22.20;99.90;;;;;;5008779;28;20091;-46
2022/08/12 07:55:10;;;;;;;7.70;2.78;;;22.20;99.90;;;;;;5005067;28;20177;-46
2022/08/12 07:57:48;;;;;;;5.70;2.78;;;22.40;99.80;;;;;;5005447;28;20046;-48
2022/08/12 08:00:15;;;;;;;6.82;2.92;;;22.50;99.70;;;;;;5008524;28;20504;-48
2022/08/12 08:02:40;;;;;;;8.43;2.47;;;22.60;99.90;;;;;;4990001;28;20053;-44
2022/08/12 08:05:06;;;;;;;8.25;2.60;;;22.60;99.90;;;;;;5008051;28;20072;-44
2022/08/12 08:07:32;;;;;;;4.88;2.70;;;22.70;99.50;;;;;;5007503;28;20054;-44
2022/08/12 08:10:00;;;;;;;4.35;2.55;;;22.80;99.30;;;;;;5006474;28;20041;-45
2022/08/12 08:15:14;;;;;;;6.70;2.38;;;23.00;98.80;;;;;;5005622;28;20524;-48
2022/08/12 08:17:51;;;;;;;5.95;2.40;;;23.10;98.90;;;;;;5006662;28;20335;-44
2022/08/12 08:20:23;;;;;;;12.25;2.88;;;23.10;98.90;;;;;;5007821;28;20429;-44
2022/08/12 08:22:49;;;;;;;4.07;2.53;;;23.30;98.30;;;;;;5007865;28;20115;-48
2022/08/12 08:25:17;;;;;;;6.03;2.20;;;23.40;98.10;;;;;;5008029;28;20045;-44
2022/08/12 08:27:44;;;;;;;5.40;2.50;;;23.50;97.80;;;;;;5008286;28;20053;-46
2022/08/12 08:30:12;;;;;;;7.10;2.72;;;23.60;97.30;;;;;;5008556;28;20092;-48
2022/08/12 08:32:38;;;;;;;3.70;2.20;;;23.70;96.80;;;;;;5011579;28;20099;-48
2022/08/12 08:35:06;;;;;;;5.00;2.28;;;23.70;97.20;;;;;;5012392;28;20042;-47
2022/08/12 08:37:32;;;;;;;5.22;2.40;;;23.80;97.10;;;;;;5011925;28;20048;-46
2022/08/12 08:42:35;;;;;;;4.95;2.42;;;23.90;96.60;;;;;;5010480;28;20052;-47
2022/08/12 08:42:43;;;;;;;5.70;2.40;;;24.00;96.40;;;;;;5009606;28;20049;-46
2022/08/12 08:45:11;;;;;;;5.82;2.20;;;24.20;96.40;;;;;;5011331;28;20436;-45
2022/08/12 08:47:48;;;;;;;4.50;1.95;;;24.20;96.10;;;;;;5010154;28;20042;-46
2022/08/12 08:50:14;;;;;;;5.03;2.10;;;24.20;95.80;;;;;;5010333;28;20042;-45
2022/08/12 08:52:44;;;;;;;4.43;1.90;;;24.30;94.70;;;;;;5009356;28;20042;-49
2022/08/12 08:55:12;;;;;;;6.07;2.22;;;24.60;95.10;;;;;;5010370;28;20096;-49
2022/08/12 08:57:39;;;;;;;4.65;1.90;;;24.60;95.20;;;;;;5011992;28;20042;-47
2022/08/12 09:00:06;;;;;;;5.10;2.00;;;24.80;94.60;;;;;;5011298;28;20493;-45
2022/08/12 09:02:31;;;;;;;4.15;2.08;;;24.80;94.00;;;;;;5011070;28;20041;-46
2022/08/12 09:04:57;;;;;;;6.38;2.55;;;25.00;94.10;;;;;;5009179;28;20052;-47
2022/08/12 09:07:24;;;;;;;6.13;1.95;;;25.30;93.70;;;;;;5009957;28;20092;-48
2022/08/12 09:09:51;;;;;;;3.50;2.03;;;25.50;92.50;;;;;;5009006;28;20563;-47
2022/08/12 09:15:01;;;;;;;3.92;2.30;;;25.90;92.10;;;;;;5011062;28;20044;-47
2022/08/12 09:17:29;;;;;;;3.53;2.00;;;26.00;92.10;;;;;;5012167;28;20124;-45
2022/08/12 09:19:54;;;;;;;3.80;2.22;;;26.20;92.10;;;;;;5011062;28;20540;-47
2022/08/12 09:22:21;;;;;;;5.15;2.45;;;26.60;91.20;;;;;;5010861;28;20168;-44
2022/08/12 09:24:47;;;;;;;6.85;2.15;;;26.80;90.80;;;;;;5005931;28;20072;-46
2022/08/12 09:27:15;;;;;;;6.35;2.22;;;26.90;90.10;;;;;;4991397;28;20053;-44
2022/08/12 09:29:41;;;;;;;3.90;2.20;;;27.10;90.30;;;;;;5009295;28;20045;-46
2022/08/12 09:32:08;;;;;;;3.85;2.10;;;27.20;90.80;;;;;;5008383;28;20031;-47
2022/08/12 09:34:35;;;;;;;5.43;2.17;;;27.50;90.30;;;;;;5010214;28;20042;-47
2022/08/12 09:37:01;;;;;;;4.38;2.10;;;27.60;89.40;;;;;;5009002;28;20559;-47
2022/08/12 09:39:28;;;;;;;3.55;1.92;;;27.70;88.20;;;;;;5009796;28;20042;-46
2022/08/12 09:47:27;;;;;;;4.32;2.05;;;28.10;84.00;;;;;;5009294;28;20063;-45
2022/08/12 09:49:53;;;;;;;4.28;1.90;;;28.30;85.60;;;;;;5008469;28;20704;-46
2022/08/12 09:52:19;;;;;;;6.90;2.25;;;28.30;85.00;;;;;;5010089;28;20077;-46
2022/08/12 09:54:45;;;;;;;4.13;1.83;;;28.40;84.70;;;;;;5009567;28;20045;-47
2022/08/12 09:57:17;;;;;;;7.75;2.40;;;28.50;83.10;;;;;;5008181;28;20628;-45
2022/08/12 09:59:43;;;;;;;4.53;2.15;;;28.70;82.20;;;;;;5005065;28;20169;-49
2022/08/12 10:02:11;;;;;;;4.82;2.20;;;28.70;81.30;;;;;;5008070;28;20503;-44
2022/08/12 10:04:47;;;;;;;6.30;1.90;;;28.90;82.70;;;;;;5008719;28;20108;-48
2022/08/12 10:07:14;;;;;;;4.90;2.05;;;29.00;82.30;;;;;;5008799;28;20042;-47
2022/08/12 10:09:40;;;;;;;4.05;1.90;;;29.10;79.10;;;;;;5008471;28;20127;-46
2022/08/12 10:14:50;;;;;;;7.05;2.17;;;29.10;80.40;;;;;;5008542;28;20761;-49
2022/08/12 10:17:21;;;;;;;5.47;2.05;;;29.20;78.50;;;;;;5009450;28;20030;-46
2022/08/12 10:19:47;;;;;;;3.55;1.60;;;29.20;77.30;;;;;;5009019;28;20061;-47
2022/08/12 10:22:14;;;;;;;8.63;1.55;;;29.30;77.50;;;;;;5009722;28;20073;-46
2022/08/12 10:24:40;;;;;;;4.28;1.88;;;29.20;77.20;;;;;;5008838;28;20038;-47
2022/08/12 10:29:51;;;;;;;7.45;1.73;;;29.50;77.90;;;;;;5007602;28;20052;-46
2022/08/12 10:32:20;;;;;;;4.85;1.80;;;29.60;75.80;;;;;;5008958;28;20041;-48
2022/08/12 10:34:49;;;;;;;10.32;2.00;;;29.50;76.00;;;;;;5009123;28;20108;-49
2022/08/12 10:37:16;;;;;;;5.45;1.90;;;29.50;74.30;;;;;;5006182;28;20056;-47
2022/08/12 10:39:43;;;;;;;6.45;2.00;;;29.70;75.20;;;;;;5008827;28;20113;-46
2022/08/12 10:45:02;;;;;;;3.80;1.60;;;29.70;71.80;;;;;;5000724;28;20049;-45
2022/08/12 10:47:31;;;;;;;3.47;1.20;;;29.90;70.30;;;;;;5009773;28;20092;-46
2022/08/12 10:50:00;;;;;;;4.43;1.65;;;30.10;69.40;;;;;;5005566;28;20477;-50
2022/08/12 10:52:29;;;;;;;3.17;1.60;;;29.90;70.40;;;;;;4984208;28;20133;-44
2022/08/12 10:54:55;;;;;;;3.28;1.45;;;29.90;70.70;;;;;;5001750;28;20673;-44
2022/08/12 10:57:25;;;;;;;2.60;1.48;;;30.10;71.70;;;;;;5007741;28;20838;-46
2022/08/12 10:59:55;;;;;;;3.53;1.67;;;30.30;71.10;;;;;;5006934;28;20037;-44
2022/08/12 11:02:23;;;;;;;5.03;1.73;;;30.30;69.30;;;;;;5007235;28;20505;-47
2022/08/12 11:04:49;;;;;;;5.07;1.35;;;30.30;70.40;;;;;;5007064;28;20048;-47
2022/08/12 11:07:16;;;;;;;6.60;1.80;;;30.30;70.20;;;;;;4971874;28;20070;-47
2022/08/12 11:09:42;;;;;;;6.22;1.90;;;30.30;70.50;;;;;;4959183;28;20043;-45
2022/08/12 11:12:08;;;;;;;4.72;1.58;;;30.50;70.10;;;;;;4956333;28;20444;-44
2022/08/12 11:14:36;;;;;;;3.40;1.50;;;30.70;69.40;;;;;;4962029;28;20153;-46
2022/08/12 11:17:07;;;;;;;5.63;1.60;;;30.60;70.50;;;;;;4944620;28;20043;-46
2022/08/12 11:19:34;;;;;;;3.10;1.55;;;30.70;69.30;;;;;;4961274;28;20086;-47
2022/08/12 11:22:00;;;;;;;3.75;1.67;;;30.90;69.00;;;;;;4969406;28;20145;-45
2022/08/12 11:24:27;;;;;;;2.83;1.20;;;31.00;69.90;;;;;;4968626;28;20074;-45
2022/08/12 11:26:53;;;;;;;3.97;1.20;;;31.20;69.50;;;;;;4973879;28;20359;-47
2022/08/12 11:29:21;;;;;;;3.55;1.20;;;31.20;68.60;;;;;;4960945;28;20042;-47
2022/08/12 11:31:47;;;;;;;2.50;1.10;;;31.40;67.60;;;;;;4949952;28;20050;-49
2022/08/12 11:34:15;;;;;;;2.55;1.25;;;31.50;68.20;;;;;;4974178;28;20054;-49
2022/08/12 11:36:50;;;;;;;2.55;1.23;;;31.70;67.20;;;;;;4960517;28;20753;-48
2022/08/12 11:39:16;;;;;;;2.92;1.48;;;31.60;67.30;;;;;;4962725;28;20038;-48
2022/08/12 11:41:42;;;;;;;5.88;1.27;;;31.70;67.10;;;;;;4965398;28;20065;-44
2022/08/12 11:44:07;;;;;;;3.40;1.48;;;31.80;68.40;;;;;;4967221;28;20484;-45
2022/08/12 11:46:37;;;;;;;2.75;1.20;;;31.90;67.00;;;;;;4958813;28;20043;-47
2022/08/12 11:49:03;;;;;;;3.67;1.30;;;32.10;65.50;;;;;;4942492;28;20132;-47
2022/08/12 11:51:30;;;;;;;3.72;1.58;;;32.00;64.90;;;;;;4959508;28;20408;-47
2022/08/12 11:53:56;;;;;;;3.42;1.40;;;32.00;66.00;;;;;;4964549;28;20034;-45
2022/08/12 11:56:21;;;;;;;4.15;1.50;;;32.00;65.70;;;;;;4961473;28;20500;-45
2022/08/12 11:58:47;;;;;;;2.45;1.23;;;32.10;64.30;;;;;;4960881;28;20046;-45
2022/08/12 12:01:13;;;;;;;4.47;1.35;;;32.00;63.20;;;;;;4960779;28;20391;-45
2022/08/12 12:03:39;;;;;;;3.10;1.25;;;32.20;62.70;;;;;;4968130;28;20049;-48
2022/08/12 12:06:05;;;;;;;3.88;1.60;;;32.30;64.00;;;;;;4966651;28;20545;-46
2022/08/12 12:08:31;;;;;;;2.15;1.10;;;32.20;63.70;;;;;;4961925;28;20042;-45
2022/08/12 12:10:57;;;;;;;4.18;1.50;;;32.50;63.80;;;;;;4960112;28;20039;-46
2022/08/12 12:13:23;;;;;;;3.40;1.33;;;32.40;62.50;;;;;;4966454;28;20131;-46
2022/08/12 12:15:49;;;;;;;3.88;1.40;;;32.50;62.80;;;;;;4965279;28;20073;-48
2022/08/12 12:18:30;;;;;;;4.93;1.40;;;32.60;63.90;;;;;;4960776;28;20133;-49
2022/08/12 12:21:05;;;;;;;5.40;1.42;;;32.60;62.20;;;;;;4959097;28;20098;-49
2022/08/12 12:23:33;;;;;;;3.78;1.70;;;32.90;62.90;;;;;;4967594;28;20065;-49
2022/08/12 12:25:59;;;;;;;7.03;1.90;;;32.90;63.00;;;;;;4946279;28;20047;-46
2022/08/12 12:28:25;;;;;;;4.30;1.58;;;33.30;63.10;;;;;;4963315;28;20426;-45
2022/08/12 12:30:51;;;;;;;2.17;1.23;;;33.10;61.60;;;;;;4946671;28;20053;-49
2022/08/12 12:33:17;;;;;;;5.03;1.90;;;33.40;62.50;;;;;;4967259;28;20031;-47
2022/08/12 12:35:42;;;;;;;4.07;1.50;;;33.50;62.80;;;;;;4959690;28;20046;-46
2022/08/12 12:38:10;;;;;;;2.72;1.38;;;33.60;61.70;;;;;;4961780;28;20043;-48
2022/08/12 12:40:38;;;;;;;4.68;1.70;;;33.60;60.90;;;;;;4967640;28;20074;-46
2022/08/12 12:43:04;;;;;;;5.97;1.50;;;33.80;61.30;;;;;;4960239;28;20047;-45
2022/08/12 12:45:33;;;;;;;3.25;1.67;;;33.80;61.50;;;;;;4957287;28;20090;-45
2022/08/12 12:47:59;;;;;;;4.35;1.50;;;33.70;61.40;;;;;;4960998;28;20154;-45
2022/08/12 12:50:31;;;;;;;4.25;1.65;;;33.90;62.40;;;;;;4952508;28;20347;-45
2022/08/12 12:52:56;;;;;;;4.93;1.50;;;33.80;60.70;;;;;;4961290;28;20494;-46
2022/08/12 12:55:23;;;;;;;3.35;1.60;;;34.20;61.80;;;;;;4960862;28;20140;-44
2022/08/12 12:57:49;;;;;;;2.42;1.25;;;33.90;59.20;;;;;;4950796;28;20050;-45
2022/08/12 13:00:17;;;;;;;5.22;1.70;;;34.30;60.40;;;;;;4960663;28;20049;-44
2022/08/12 13:02:51;;;;;;;4.43;1.60;;;34.50;60.40;;;;;;4958082;28;20672;-44
2022/08/12 13:05:26;;;;;;;2.83;1.60;;;34.40;59.80;;;;;;4966300;28;20042;-48
2022/08/12 13:07:53;;;;;;;4.35;1.60;;;34.60;59.80;;;;;;4955352;28;20043;-46
2022/08/12 13:10:20;;;;;;;3.05;1.70;;;34.60;59.80;;;;;;4959928;28;20382;-46
2022/08/12 13:12:46;;;;;;;4.75;1.50;;;34.50;59.20;;;;;;4960625;28;20596;-46
2022/08/12 13:15:15;;;;;;;5.80;1.70;;;34.80;59.70;;;;;;4959296;28;20046;-47
2022/08/12 13:17:46;;;;;;;2.85;1.60;;;34.80;59.30;;;;;;4960345;28;20082;-47
2022/08/12 13:20:14;;;;;;;4.95;1.70;;;35.10;59.40;;;;;;4951249;28;20480;-45
2022/08/12 13:22:39;;;;;;;4.75;1.60;;;34.80;58.80;;;;;;4960458;28;20066;-45
2022/08/12 13:25:06;;;;;;;4.85;1.30;;;35.10;59.60;;;;;;4960681;28;20069;-47
2022/08/12 13:27:40;;;;;;;5.20;1.38;;;34.80;58.80;;;;;;4962437;28;20138;-47
2022/08/12 13:30:10;;;;;;;3.90;1.30;;;35.30;56.50;;;;;;4967904;28;20045;-45
2022/08/12 13:32:36;;;;;;;4.20;1.63;;;35.10;56.90;;;;;;4963254;28;20493;-46
2022/08/12 13:35:05;;;;;;;3.25;1.58;;;35.30;57.10;;;;;;4957512;28;20035;-46
2022/08/12 13:37:31;;;;;;;3.42;1.60;;;35.30;57.50;;;;;;4960461;28;20553;-46
2022/08/12 13:39:57;;;;;;;2.38;1.35;;;35.40;57.60;;;;;;4967435;28;20046;-48
2022/08/12 13:42:23;;;;;;;4.18;1.60;;;35.40;57.80;;;;;;4966612;28;20039;-47
2022/08/12 13:44:51;;;;;;;4.82;1.42;;;35.50;57.00;;;;;;4967773;28;20035;-45
2022/08/12 13:47:20;;;;;;;4.32;1.60;;;35.60;56.80;;;;;;4963378;28;20566;-45
2022/08/12 13:49:48;;;;;;;4.75;1.40;;;35.70;57.40;;;;;;4964834;28;20031;-44
2022/08/12 13:52:17;;;;;;;5.13;1.48;;;35.60;56.60;;;;;;4960821;28;20059;-47
2022/08/12 13:54:45;;;;;;;4.93;1.67;;;35.90;56.10;;;;;;4962372;28;20039;-45
2022/08/12 13:57:13;;;;;;;4.10;1.50;;;35.70;55.90;;;;;;4970157;28;20126;-45
2022/08/12 13:59:40;;;;;;;4.78;1.50;;;36.00;55.80;;;;;;4958496;28;20034;-46
2022/08/12 14:02:12;;;;;;;4.13;1.95;;;35.90;56.20;;;;;;4960091;28;20038;-45
2022/08/12 14:04:38;;;;;;;7.93;1.70;;;36.20;55.90;;;;;;4965727;28;20044;-46
2022/08/12 14:07:05;;;;;;;3.85;1.48;;;36.30;56.50;;;;;;4959592;28;20042;-48
2022/08/12 14:10:34;;;;;;;3.78;1.40;;;36.10;54.90;;;;;;4955874;28;20637;-45
2022/08/12 14:12:17;;;;;;;6.25;1.92;;;36.20;55.60;;;;;;4961630;28;20043;-44
2022/08/12 14:14:49;;;;;;;4.55;1.40;;;36.30;54.90;;;;;;4948979;28;20057;-48
2022/08/12 14:17:17;;;;;;;2.53;1.27;;;36.10;54.40;;;;;;4959856;28;20051;-46
2022/08/12 14:22:28;;;;;;;3.85;1.75;;;36.10;54.50;;;;;;4963086;28;20042;-46
2022/08/12 14:24:54;;;;;;;3.75;1.60;;;36.20;54.20;;;;;;4963675;28;20039;-45
2022/08/12 14:27:23;;;;;;;3.50;1.50;;;36.50;54.90;;;;;;4962483;28;20565;-44
2022/08/12 14:29:48;;;;;;;6.38;1.67;;;36.40;54.10;;;;;;4962154;28;20166;-44
2022/08/12 14:32:16;;;;;;;2.60;1.40;;;36.50;53.90;;;;;;4962812;28;20481;-46
2022/08/12 14:34:42;;;;;;;5.65;1.77;;;36.70;54.70;;;;;;4962472;28;20395;-45
2022/08/12 14:37:08;;;;;;;3.15;1.50;;;37.10;54.00;;;;;;4960808;28;20045;-45
2022/08/12 14:39:33;;;;;;;3.58;1.73;;;36.70;54.20;;;;;;4961539;28;20043;-46